createdAt,value
2022-07-30T00:00:29.314Z,18.50
2022-07-30T00:02:57.690Z,18.40
2022-07-30T00:05:25.995Z,18.40
2022-07-30T00:07:55.768Z,18.40
2022-07-30T00:10:24.169Z,18.30
2022-07-30T00:12:53.131Z,18.30
2022-07-30T00:15:22.101Z,18.20
2022-07-30T00:17:50.539Z,18.20
2022-07-30T00:20:18.857Z,18.10
2022-07-30T00:22:47.808Z,18.10
2022-07-30T00:25:20.018Z,18.00
2022-07-30T00:27:48.283Z,18.00
2022-07-30T00:30:16.956Z,18.00
2022-07-30T00:32:45.223Z,18.00
2022-07-30T00:35:14.199Z,17.90
2022-07-30T00:37:42.625Z,17.80
2022-07-30T00:40:11.689Z,17.80
2022-07-30T00:42:43.230Z,17.80
2022-07-30T00:45:12.632Z,17.80
2022-07-30T00:47:41.300Z,17.80
2022-07-30T00:50:11.860Z,17.70
2022-07-30T00:52:41.340Z,17.70
2022-07-30T00:55:12.310Z,17.70
2022-07-30T00:57:42.738Z,17.70
2022-07-30T01:00:14.145Z,17.70
2022-07-30T01:02:42.691Z,17.70
2022-07-30T01:05:11.591Z,17.60
2022-07-30T01:07:39.939Z,17.50
2022-07-30T01:10:09.730Z,17.50
2022-07-30T01:12:39.092Z,17.50
2022-07-30T01:15:11.728Z,17.50
2022-07-30T01:17:40.609Z,17.50
2022-07-30T01:20:12.204Z,17.50
2022-07-30T01:22:53.465Z,17.50
2022-07-30T01:25:31.224Z,17.40
2022-07-30T01:28:04.344Z,17.50
2022-07-30T01:30:36.416Z,17.50
2022-07-30T01:33:07.350Z,17.40
2022-07-30T01:35:37.055Z,17.40
2022-07-30T01:38:09.632Z,17.50
2022-07-30T01:40:39.719Z,17.30
2022-07-30T01:43:10.386Z,17.30
2022-07-30T01:45:42.409Z,17.40
2022-07-30T01:48:14.497Z,17.30
2022-07-30T01:50:46.275Z,17.30
2022-07-30T01:53:17.839Z,17.30
2022-07-30T01:55:47.609Z,17.30
2022-07-30T01:58:20.264Z,17.20
2022-07-30T02:00:50.816Z,17.10
2022-07-30T02:03:19.301Z,17.10
2022-07-30T02:05:54.715Z,17.10
2022-07-30T02:08:35.209Z,17.10
2022-07-30T02:11:08.812Z,17.10
2022-07-30T02:13:46.314Z,17.10
2022-07-30T02:16:22.259Z,17.10
2022-07-30T02:19:04.477Z,17.00
2022-07-30T02:21:40.894Z,16.90
2022-07-30T02:24:23.283Z,16.90
2022-07-30T02:27:03.469Z,16.80
2022-07-30T02:29:36.405Z,16.70
2022-07-30T02:32:09.239Z,16.80
2022-07-30T02:34:40.251Z,16.80
2022-07-30T02:37:10.657Z,16.80
2022-07-30T02:39:39.506Z,16.70
2022-07-30T02:42:08.743Z,16.80
2022-07-30T02:44:39.907Z,16.80
2022-07-30T02:47:10.271Z,16.80
2022-07-30T02:49:40.135Z,16.80
2022-07-30T02:52:12.295Z,16.70
2022-07-30T02:54:42.865Z,16.70
2022-07-30T02:57:11.992Z,16.70
2022-07-30T02:59:44.360Z,16.70
2022-07-30T03:02:14.991Z,16.70
2022-07-30T03:04:44.555Z,16.60
2022-07-30T03:07:17.770Z,16.60
2022-07-30T03:09:52.031Z,16.60
2022-07-30T03:12:22.749Z,16.60
2022-07-30T03:14:53.091Z,16.60
2022-07-30T03:17:23.599Z,16.60
2022-07-30T03:19:52.891Z,16.60
2022-07-30T03:22:22.406Z,16.50
2022-07-30T03:24:52.359Z,16.50
2022-07-30T03:27:22.080Z,16.60
2022-07-30T03:29:54.669Z,16.60
2022-07-30T03:32:26.179Z,16.60
2022-07-30T03:34:56.126Z,16.50
2022-07-30T03:37:26.096Z,16.60
2022-07-30T03:39:55.425Z,16.60
2022-07-30T03:42:24.371Z,16.60
2022-07-30T03:44:54.742Z,16.50
2022-07-30T03:47:23.696Z,16.50
2022-07-30T03:49:52.422Z,16.60
2022-07-30T03:52:21.120Z,16.60
2022-07-30T03:54:50.344Z,16.60
2022-07-30T03:57:20.507Z,16.60
2022-07-30T03:59:51.741Z,16.70
2022-07-30T04:02:21.506Z,16.70
2022-07-30T04:04:49.827Z,16.70
2022-07-30T04:07:18.220Z,16.70
2022-07-30T04:09:46.642Z,16.60
2022-07-30T04:12:15.031Z,16.60
2022-07-30T04:14:45.491Z,16.60
2022-07-30T04:17:18.549Z,16.60
2022-07-30T04:19:53.044Z,16.50
2022-07-30T04:22:33.722Z,16.50
2022-07-30T04:25:02.878Z,16.50
2022-07-30T04:27:33.006Z,16.60
2022-07-30T04:30:01.715Z,16.60
2022-07-30T04:32:30.203Z,16.50
2022-07-30T04:35:00.501Z,16.50
2022-07-30T04:37:29.165Z,16.60
2022-07-30T04:39:58.670Z,16.60
2022-07-30T04:42:27.790Z,16.50
2022-07-30T04:44:56.952Z,16.50
2022-07-30T04:47:25.902Z,16.50
2022-07-30T04:49:55.166Z,16.60
2022-07-30T04:52:27.670Z,16.50
2022-07-30T04:55:01.220Z,16.60
2022-07-30T04:57:29.720Z,16.60
2022-07-30T04:59:58.114Z,16.60
2022-07-30T05:02:30.578Z,16.50
2022-07-30T05:05:00.388Z,16.50
2022-07-30T05:07:31.572Z,16.60
2022-07-30T05:10:00.039Z,16.50
2022-07-30T05:12:34.367Z,16.60
2022-07-30T05:15:03.064Z,16.60
2022-07-30T05:17:31.362Z,16.70
2022-07-30T05:19:59.974Z,16.70
2022-07-30T05:22:30.757Z,16.80
2022-07-30T05:24:59.352Z,16.80
2022-07-30T05:27:27.714Z,16.80
2022-07-30T05:29:56.193Z,16.80
2022-07-30T05:32:25.701Z,16.90
2022-07-30T05:34:58.592Z,16.90
2022-07-30T05:37:27.320Z,17.00
2022-07-30T05:40:02.324Z,17.10
2022-07-30T05:42:31.622Z,17.20
2022-07-30T05:45:00.412Z,17.30
2022-07-30T05:47:28.788Z,17.40
2022-07-30T05:49:59.386Z,17.40
2022-07-30T05:52:31.137Z,17.50
2022-07-30T05:55:01.345Z,17.60
2022-07-30T05:57:29.785Z,17.70
2022-07-30T05:59:58.305Z,17.80
2022-07-30T06:02:26.796Z,18.00
2022-07-30T06:04:55.351Z,18.00
2022-07-30T06:07:23.871Z,18.10
2022-07-30T06:09:52.435Z,18.30
2022-07-30T06:12:22.024Z,18.40
2022-07-30T06:14:50.736Z,18.40
2022-07-30T06:17:18.952Z,18.50
2022-07-30T06:19:47.372Z,18.50
2022-07-30T06:22:15.918Z,18.60
2022-07-30T06:24:44.376Z,18.60
2022-07-30T06:27:12.703Z,18.60
2022-07-30T06:29:42.263Z,18.70
2022-07-30T06:32:10.760Z,18.70
2022-07-30T06:34:39.629Z,18.70
2022-07-30T06:37:08.038Z,18.80
2022-07-30T06:39:56.281Z,18.80
2022-07-30T06:42:24.690Z,18.80
2022-07-30T06:44:54.637Z,19.10
2022-07-30T06:47:26.177Z,19.00
2022-07-30T06:49:54.918Z,19.10
2022-07-30T06:52:23.209Z,19.30
2022-07-30T06:54:51.876Z,19.30
2022-07-30T06:57:20.435Z,19.30
2022-07-30T06:59:57.074Z,19.30
2022-07-30T07:02:27.199Z,19.60
2022-07-30T07:04:55.491Z,19.60
2022-07-30T07:07:40.651Z,19.50
2022-07-30T07:10:10.061Z,19.50
2022-07-30T07:12:38.537Z,19.60
2022-07-30T07:15:08.708Z,19.60
2022-07-30T07:17:38.454Z,19.70
2022-07-30T07:20:07.553Z,19.80
2022-07-30T07:22:36.000Z,19.90
2022-07-30T07:25:04.452Z,19.80
2022-07-30T07:27:32.934Z,19.80
2022-07-30T07:30:05.513Z,19.80
2022-07-30T07:32:34.467Z,19.80
2022-07-30T07:35:05.301Z,19.90
2022-07-30T07:37:33.732Z,20.00
2022-07-30T07:40:02.207Z,20.00
2022-07-30T07:42:30.667Z,20.00
2022-07-30T07:44:59.006Z,20.10
2022-07-30T07:47:27.492Z,20.10
2022-07-30T07:49:56.819Z,20.20
2022-07-30T07:52:26.413Z,20.20
2022-07-30T07:54:55.177Z,20.40
2022-07-30T07:57:24.246Z,20.60
2022-07-30T07:59:54.405Z,20.70
2022-07-30T08:02:22.985Z,20.70
2022-07-30T08:04:51.553Z,20.90
2022-07-30T08:07:19.904Z,21.00
2022-07-30T08:09:49.444Z,21.10
2022-07-30T08:12:17.939Z,20.90
2022-07-30T08:14:46.710Z,20.90
2022-07-30T08:17:15.223Z,21.00
2022-07-30T08:19:43.574Z,21.00
2022-07-30T08:22:12.118Z,21.00
2022-07-30T08:24:40.688Z,21.00
2022-07-30T08:27:10.502Z,21.10
2022-07-30T08:29:38.972Z,21.10
2022-07-30T08:32:07.555Z,21.10
2022-07-30T08:34:36.117Z,21.00
2022-07-30T08:37:04.618Z,21.10
2022-07-30T08:39:32.964Z,21.30
2022-07-30T08:42:05.080Z,21.40
2022-07-30T08:44:37.615Z,21.30
2022-07-30T08:47:08.012Z,21.20
2022-07-30T08:49:37.338Z,21.40
2022-07-30T08:52:08.879Z,21.40
2022-07-30T08:54:37.966Z,21.50
2022-07-30T08:57:07.002Z,21.50
2022-07-30T08:59:58.997Z,21.60
2022-07-30T09:02:29.445Z,21.60
2022-07-30T09:04:58.255Z,21.80
2022-07-30T09:07:26.636Z,21.80
2022-07-30T09:09:55.023Z,21.90
2022-07-30T09:12:37.559Z,22.00
2022-07-30T09:15:10.527Z,22.00
2022-07-30T09:17:53.113Z,21.90
2022-07-30T09:20:23.407Z,21.90
2022-07-30T09:22:53.822Z,22.00
2022-07-30T09:25:39.293Z,22.10
2022-07-30T09:28:15.783Z,22.20
2022-07-30T09:30:49.218Z,22.30
2022-07-30T09:33:33.644Z,22.30
2022-07-30T09:36:02.935Z,22.30
2022-07-30T09:38:42.534Z,22.50
2022-07-30T09:41:29.048Z,22.70
2022-07-30T09:44:02.173Z,22.70
2022-07-30T09:46:47.222Z,22.60
2022-07-30T09:49:17.370Z,22.60
2022-07-30T09:51:56.023Z,22.70
2022-07-30T09:54:26.512Z,22.80
2022-07-30T09:57:23.232Z,22.80
2022-07-30T09:59:56.587Z,22.90
2022-07-30T10:02:33.168Z,23.00
2022-07-30T10:05:14.498Z,23.00
2022-07-30T10:07:53.308Z,23.00
2022-07-30T10:10:25.566Z,23.10
2022-07-30T10:12:56.304Z,23.10
2022-07-30T10:15:29.639Z,23.20
2022-07-30T10:18:00.675Z,23.30
2022-07-30T10:20:29.578Z,23.30
2022-07-30T10:22:58.348Z,23.30
2022-07-30T10:25:28.383Z,23.40
2022-07-30T10:27:57.944Z,23.40
2022-07-30T10:30:27.770Z,23.50
2022-07-30T10:32:59.989Z,23.50
2022-07-30T10:35:34.863Z,23.50
2022-07-30T10:38:13.772Z,23.50
2022-07-30T10:40:49.389Z,23.50
2022-07-30T10:43:44.232Z,23.60
2022-07-30T10:46:23.764Z,23.60
2022-07-30T10:48:55.615Z,23.60
2022-07-30T10:51:46.572Z,23.60
2022-07-30T10:54:39.639Z,23.70
2022-07-30T10:57:14.771Z,23.70
2022-07-30T11:00:11.151Z,23.70
2022-07-30T11:02:40.608Z,23.70
2022-07-30T11:05:44.379Z,23.70
2022-07-30T11:08:35.775Z,23.70
2022-07-30T11:11:19.789Z,23.70
2022-07-30T11:13:57.410Z,23.60
2022-07-30T11:16:47.631Z,23.70
2022-07-30T11:19:55.835Z,23.70
2022-07-30T11:22:28.314Z,23.70
2022-07-30T11:24:58.806Z,23.80
2022-07-30T11:27:41.298Z,23.90
2022-07-30T11:30:35.917Z,23.90
2022-07-30T11:33:32.172Z,23.90
2022-07-30T11:36:13.042Z,24.00
2022-07-30T11:39:06.920Z,24.00
2022-07-30T11:41:35.535Z,23.90
2022-07-30T11:44:30.023Z,24.00
2022-07-30T11:46:58.855Z,24.10
2022-07-30T11:49:27.471Z,24.00
2022-07-30T11:51:55.955Z,24.00
2022-07-30T11:54:26.326Z,24.10
2022-07-30T11:57:03.703Z,24.10
2022-07-30T11:59:32.998Z,24.20
2022-07-30T12:02:02.245Z,24.30
2022-07-30T12:04:31.617Z,24.20
2022-07-30T12:07:00.415Z,24.20
2022-07-30T12:09:30.325Z,24.10
2022-07-30T12:11:59.746Z,24.30
2022-07-30T12:14:39.331Z,24.30
2022-07-30T12:17:15.330Z,24.20
2022-07-30T12:19:48.327Z,24.40
2022-07-30T12:22:17.263Z,24.30
2022-07-30T12:24:46.864Z,24.10
2022-07-30T12:27:15.312Z,24.20
2022-07-30T12:29:43.829Z,24.20
2022-07-30T12:32:12.577Z,24.20
2022-07-30T12:34:54.614Z,24.40
2022-07-30T12:37:23.074Z,24.40
2022-07-30T12:40:07.565Z,24.40
2022-07-30T12:42:38.831Z,24.40
2022-07-30T12:45:08.699Z,24.50
2022-07-30T12:47:36.973Z,24.50
2022-07-30T12:50:18.217Z,24.50
2022-07-30T12:52:51.245Z,24.50
2022-07-30T12:55:30.094Z,24.50
2022-07-30T12:58:07.086Z,24.60
2022-07-30T13:00:52.259Z,24.60
2022-07-30T13:03:24.085Z,24.60
2022-07-30T13:05:55.537Z,24.60
2022-07-30T13:08:46.661Z,24.60
2022-07-30T13:11:16.710Z,24.70
2022-07-30T13:13:45.099Z,24.80
2022-07-30T13:16:14.371Z,24.60
2022-07-30T13:18:42.611Z,24.60
2022-07-30T13:21:11.364Z,24.70
2022-07-30T13:23:40.514Z,24.70
2022-07-30T13:26:10.009Z,24.60
2022-07-30T13:28:39.610Z,24.00
2022-07-30T13:31:08.221Z,23.80
2022-07-30T13:33:36.994Z,23.60
2022-07-30T13:36:06.314Z,23.40
2022-07-30T13:38:35.247Z,23.30
2022-07-30T13:41:04.953Z,23.40
2022-07-30T13:43:33.584Z,23.40
2022-07-30T13:46:04.699Z,23.60
2022-07-30T13:48:33.691Z,23.50
2022-07-30T13:51:02.559Z,23.80
2022-07-30T13:53:30.982Z,23.80
2022-07-30T13:56:00.457Z,23.80
2022-07-30T13:58:31.784Z,23.80
2022-07-30T14:01:07.111Z,23.70
2022-07-30T14:03:35.989Z,23.70
2022-07-30T14:06:10.881Z,23.60
2022-07-30T14:08:39.943Z,23.40
2022-07-30T14:11:08.341Z,23.40
2022-07-30T14:13:36.735Z,23.30
2022-07-30T14:16:22.977Z,23.30
2022-07-30T14:18:57.678Z,23.60
2022-07-30T14:21:26.641Z,23.40
2022-07-30T14:23:55.119Z,23.40
2022-07-30T14:26:23.402Z,23.40
2022-07-30T14:28:51.655Z,23.30
2022-07-30T14:31:21.296Z,23.40
2022-07-30T14:33:49.532Z,23.40
2022-07-30T14:36:18.284Z,23.40
2022-07-30T14:38:46.655Z,23.60
2022-07-30T14:41:14.986Z,23.70
2022-07-30T14:43:43.323Z,23.60
2022-07-30T14:46:11.966Z,23.50
2022-07-30T14:48:41.568Z,23.50
2022-07-30T14:51:17.755Z,23.30
2022-07-30T14:53:48.267Z,23.30
2022-07-30T14:56:17.831Z,23.30
2022-07-30T14:58:46.322Z,23.40
2022-07-30T15:01:16.527Z,23.50
2022-07-30T15:03:46.985Z,23.40
2022-07-30T15:06:17.311Z,23.50
2022-07-30T15:08:47.338Z,23.40
2022-07-30T15:11:15.728Z,23.50
2022-07-30T15:13:49.928Z,23.60
2022-07-30T15:16:19.466Z,23.50
2022-07-30T15:18:49.732Z,23.40
2022-07-30T15:21:18.274Z,23.50
2022-07-30T15:23:46.806Z,23.50
2022-07-30T15:26:15.385Z,23.50
2022-07-30T15:28:43.683Z,23.50
2022-07-30T15:31:11.976Z,23.30
2022-07-30T15:33:43.149Z,23.40
2022-07-30T15:36:14.132Z,23.30
2022-07-30T15:38:43.364Z,23.50
2022-07-30T15:41:13.898Z,23.20
2022-07-30T15:43:42.525Z,23.30
2022-07-30T15:46:10.847Z,23.20
2022-07-30T15:48:39.351Z,23.10
2022-07-30T15:51:08.300Z,23.10
2022-07-30T15:53:38.041Z,23.10
2022-07-30T15:56:06.790Z,23.40
2022-07-30T15:58:36.173Z,23.30
2022-07-30T16:01:06.914Z,23.70
2022-07-30T16:03:35.431Z,23.90
2022-07-30T16:06:03.947Z,23.90
2022-07-30T16:08:32.398Z,24.00
2022-07-30T16:11:04.351Z,23.90
2022-07-30T16:13:33.056Z,24.00
2022-07-30T16:16:01.647Z,24.10
2022-07-30T16:18:29.827Z,24.30
2022-07-30T16:20:58.818Z,24.30
2022-07-30T16:23:27.246Z,24.00
2022-07-30T16:25:55.790Z,24.00
2022-07-30T16:28:25.707Z,24.10
2022-07-30T16:30:54.100Z,24.10
2022-07-30T16:33:22.603Z,24.30
2022-07-30T16:35:51.484Z,24.50
2022-07-30T16:38:20.321Z,24.50
2022-07-30T16:40:48.914Z,24.60
2022-07-30T16:43:19.546Z,24.60
2022-07-30T16:45:50.339Z,24.70
2022-07-30T16:48:18.682Z,24.70
2022-07-30T16:50:47.274Z,24.70
2022-07-30T16:53:16.242Z,24.70
2022-07-30T16:55:45.563Z,24.80
2022-07-30T16:58:14.399Z,24.80
2022-07-30T17:00:42.961Z,24.80
2022-07-30T17:03:20.138Z,24.50
2022-07-30T17:05:49.531Z,24.30
2022-07-30T17:08:18.093Z,24.60
2022-07-30T17:10:46.544Z,24.50
2022-07-30T17:13:16.663Z,24.50
2022-07-30T17:15:46.971Z,24.50
2022-07-30T17:18:16.850Z,24.30
2022-07-30T17:20:45.525Z,24.50
2022-07-30T17:23:14.158Z,24.70
2022-07-30T17:25:42.779Z,24.50
2022-07-30T17:28:11.209Z,24.40
2022-07-30T17:30:39.585Z,24.30
2022-07-30T17:33:07.986Z,24.50
2022-07-30T17:35:38.349Z,24.70
2022-07-30T17:38:07.403Z,24.70
2022-07-30T17:40:36.165Z,24.70
2022-07-30T17:43:04.938Z,24.70
2022-07-30T17:45:37.610Z,24.20
2022-07-30T17:48:06.796Z,24.30
2022-07-30T17:50:37.032Z,24.40
2022-07-30T17:53:06.339Z,24.40
2022-07-30T17:55:35.647Z,24.30
2022-07-30T17:58:04.206Z,24.40
2022-07-30T18:00:34.643Z,24.30
2022-07-30T18:03:03.562Z,24.30
2022-07-30T18:05:31.912Z,24.20
2022-07-30T18:08:01.597Z,23.90
2022-07-30T18:10:30.086Z,23.90
2022-07-30T18:12:58.944Z,23.90
2022-07-30T18:15:47.818Z,23.70
2022-07-30T18:18:16.251Z,23.90
2022-07-30T18:20:48.416Z,23.90
2022-07-30T18:23:19.274Z,24.20
2022-07-30T18:25:53.048Z,24.50
2022-07-30T18:28:22.875Z,24.50
2022-07-30T18:30:51.842Z,24.10
2022-07-30T18:33:20.224Z,23.70
2022-07-30T18:35:48.969Z,23.90
2022-07-30T18:38:19.142Z,23.50
2022-07-30T18:40:57.678Z,23.70
2022-07-30T18:43:26.645Z,23.70
2022-07-30T18:45:55.532Z,23.60
2022-07-30T18:48:24.530Z,23.10
2022-07-30T18:50:53.848Z,23.20
2022-07-30T18:53:23.635Z,23.20
2022-07-30T18:55:52.227Z,23.20
2022-07-30T18:58:20.480Z,23.00
2022-07-30T19:00:48.907Z,23.00
2022-07-30T19:03:22.520Z,23.20
2022-07-30T19:05:51.552Z,23.30
2022-07-30T19:08:20.067Z,23.40
2022-07-30T19:10:49.827Z,23.30
2022-07-30T19:13:18.661Z,23.40
2022-07-30T19:15:47.330Z,23.10
2022-07-30T19:18:15.780Z,23.40
2022-07-30T19:20:44.653Z,23.60
2022-07-30T19:23:13.738Z,23.50
2022-07-30T19:25:42.258Z,23.60
2022-07-30T19:28:14.006Z,23.20
2022-07-30T19:30:42.629Z,23.10
2022-07-30T19:33:15.139Z,23.30
2022-07-30T19:35:44.715Z,23.10
2022-07-30T19:38:21.539Z,23.30
2022-07-30T19:40:52.416Z,23.40
2022-07-30T19:43:23.803Z,23.40
2022-07-30T19:45:53.228Z,23.20
2022-07-30T19:51:15.652Z,23.10
2022-07-30T19:53:49.258Z,23.20
2022-07-30T19:56:17.940Z,23.20
2022-07-30T19:58:49.389Z,23.10
2022-07-30T20:01:18.771Z,23.40
2022-07-30T20:03:51.549Z,23.30
2022-07-30T20:06:19.911Z,23.30
2022-07-30T20:08:49.672Z,23.30
2022-07-30T20:11:21.229Z,23.20
2022-07-30T20:14:04.791Z,23.10
2022-07-30T20:16:35.630Z,23.20
2022-07-30T20:19:04.737Z,23.10
2022-07-30T20:21:57.437Z,23.10
2022-07-30T20:24:22.105Z,23.10
2022-07-30T20:26:50.510Z,23.10
2022-07-30T20:29:20.657Z,23.10
2022-07-30T20:31:50.161Z,23.10
2022-07-30T20:34:20.788Z,23.10
2022-07-30T20:36:52.227Z,23.00
2022-07-30T20:39:23.621Z,23.00
2022-07-30T20:42:07.626Z,22.90
2022-07-30T20:44:38.821Z,23.00
2022-07-30T20:47:08.217Z,22.90
2022-07-30T20:49:37.361Z,22.80
2022-07-30T20:52:07.070Z,22.70
2022-07-30T20:54:35.975Z,22.70
2022-07-30T20:57:15.910Z,22.70
2022-07-30T20:59:50.117Z,22.70
2022-07-30T21:02:18.697Z,22.60
2022-07-30T21:04:59.696Z,22.60
2022-07-30T21:07:36.754Z,22.60
2022-07-30T21:10:07.325Z,22.50
2022-07-30T21:12:36.546Z,22.60
2022-07-30T21:15:15.692Z,22.60
2022-07-30T21:17:52.301Z,22.50
2022-07-30T21:20:27.883Z,22.50
2022-07-30T21:22:56.581Z,22.60
2022-07-30T21:25:32.409Z,22.50
2022-07-30T21:28:02.847Z,22.40
2022-07-30T21:30:33.959Z,22.30
2022-07-30T21:33:02.463Z,22.40
2022-07-30T21:35:32.197Z,22.30
2022-07-30T21:38:00.872Z,22.20
2022-07-30T21:40:29.476Z,22.30
2022-07-30T21:42:58.287Z,22.30
2022-07-30T21:45:27.590Z,22.20
2022-07-30T21:48:10.886Z,22.20
2022-07-30T21:50:40.052Z,22.30
2022-07-30T21:53:08.854Z,22.20
2022-07-30T21:55:52.787Z,22.10
2022-07-30T21:58:25.767Z,22.10
2022-07-30T22:01:04.168Z,22.10
2022-07-30T22:04:04.049Z,22.00
2022-07-30T22:06:38.202Z,21.90
2022-07-30T22:09:19.629Z,21.70
2022-07-30T22:11:56.354Z,21.70
2022-07-30T22:14:25.706Z,21.70
2022-07-30T22:16:54.616Z,21.60
2022-07-30T22:19:25.813Z,21.60
2022-07-30T22:21:54.414Z,21.70
2022-07-30T22:24:28.803Z,21.60
2022-07-30T22:27:00.079Z,21.60
2022-07-30T22:29:34.513Z,21.80
2022-07-30T22:32:04.577Z,21.80
2022-07-30T22:34:34.926Z,21.60
2022-07-30T22:37:03.379Z,21.60
2022-07-30T22:39:50.588Z,21.60
2022-07-30T22:42:20.186Z,21.60
2022-07-30T22:44:48.818Z,21.50
2022-07-30T22:47:18.865Z,21.50
2022-07-30T22:49:56.461Z,21.40
2022-07-30T22:52:27.205Z,21.40
2022-07-30T22:54:59.661Z,21.40
2022-07-30T22:57:37.778Z,21.30
2022-07-30T23:00:11.095Z,21.30
2022-07-30T23:02:40.785Z,21.30
2022-07-30T23:05:11.779Z,21.30
2022-07-30T23:07:40.749Z,21.30
2022-07-30T23:10:16.994Z,21.20
2022-07-30T23:12:15.153Z,23.20
2022-07-30T23:12:47.744Z,21.30
2022-07-30T23:15:16.787Z,21.20
2022-07-30T23:17:45.370Z,21.20
2022-07-30T23:20:21.355Z,21.10
2022-07-30T23:22:50.141Z,21.10
2022-07-30T23:25:19.058Z,21.10
2022-07-30T23:27:47.700Z,21.00
2022-07-30T23:30:17.283Z,21.00
2022-07-30T23:32:45.673Z,21.00
2022-07-30T23:35:15.848Z,20.90
2022-07-30T23:37:49.098Z,20.90
2022-07-30T23:40:18.436Z,20.80
2022-07-30T23:42:46.978Z,20.80
2022-07-30T23:45:15.361Z,20.90
2022-07-30T23:48:00.585Z,20.80
2022-07-30T23:50:34.215Z,20.80
2022-07-30T23:53:03.487Z,20.70
2022-07-30T23:55:32.986Z,20.70
2022-07-30T23:58:01.498Z,20.70
